sensor_id;sensor_type;location;lat;lon;timestamp;pressure;altitude;pressure_sealevel;temperature;humidity
45937;BME280;31649;46.510;6.498;2023-04-25T00:00:47;94729.53;;;10.10;62.77
45937;BME280;31649;46.510;6.498;2023-04-25T00:03:13;94725.16;;;10.10;62.65
45937;BME280;31649;46.510;6.498;2023-04-25T00:05:39;94727.94;;;10.09;62.69
45937;BME280;31649;46.510;6.498;2023-04-25T00:08:04;94729.72;;;10.08;62.57
45937;BME280;31649;46.510;6.498;2023-04-25T00:10:30;94723.38;;;10.11;62.74
45937;BME280;31649;46.510;6.498;2023-04-25T00:19:29;94725.50;;;10.07;62.88
45937;BME280;31649;46.510;6.498;2023-04-25T00:21:55;94719.03;;;10.03;62.57
45937;BME280;31649;46.510;6.498;2023-04-25T00:24:21;94714.81;;;10.02;62.83
45937;BME280;31649;46.510;6.498;2023-04-25T00:26:46;94718.06;;;10.04;62.68
45937;BME280;31649;46.510;6.498;2023-04-25T00:29:12;94718.06;;;10.04;62.62
45937;BME280;31649;46.510;6.498;2023-04-25T00:31:38;94717.41;;;10.02;62.68
45937;BME280;31649;46.510;6.498;2023-04-25T00:34:03;94715.81;;;10.01;62.64
45937;BME280;31649;46.510;6.498;2023-04-25T00:36:29;94721.78;;;10.02;62.58
45937;BME280;31649;46.510;6.498;2023-04-25T00:38:55;94724.25;;;10.03;62.49
45937;BME280;31649;46.510;6.498;2023-04-25T00:41:21;94725.22;;;10.02;62.58
45937;BME280;31649;46.510;6.498;2023-04-25T00:43:47;94721.00;;;10.01;62.80
45937;BME280;31649;46.510;6.498;2023-04-25T00:46:13;94719.19;;;10.02;62.62
45937;BME280;31649;46.510;6.498;2023-04-25T00:48:39;94721.00;;;10.01;62.73
45937;BME280;31649;46.510;6.498;2023-04-25T00:51:04;94710.13;;;9.97;62.39
45937;BME280;31649;46.510;6.498;2023-04-25T00:53:30;94703.78;;;10.00;62.97
45937;BME280;31649;46.510;6.498;2023-04-25T00:55:57;94713.53;;;9.98;62.75
45937;BME280;31649;46.510;6.498;2023-04-25T00:58:23;94699.91;;;9.96;62.90
45937;BME280;31649;46.510;6.498;2023-04-25T01:00:51;94703.16;;;9.98;62.94
45937;BME280;31649;46.510;6.498;2023-04-25T01:03:17;94699.91;;;9.96;62.89
45937;BME280;31649;46.510;6.498;2023-04-25T01:05:45;94703.50;;;9.95;62.98
45937;BME280;31649;46.510;6.498;2023-04-25T01:08:10;94698.47;;;9.93;63.14
45937;BME280;31649;46.510;6.498;2023-04-25T01:10:36;94694.25;;;9.92;63.05
45937;BME280;31649;46.510;6.498;2023-04-25T01:13:02;94697.50;;;9.94;63.12
45937;BME280;31649;46.510;6.498;2023-04-25T01:15:28;94689.88;;;9.93;63.12
45937;BME280;31649;46.510;6.498;2023-04-25T01:17:54;94686.47;;;9.92;63.03
45937;BME280;31649;46.510;6.498;2023-04-25T01:20:24;94691.84;;;9.91;62.96
45937;BME280;31649;46.510;6.498;2023-04-25T01:22:53;94689.41;;;9.89;62.90
45937;BME280;31649;46.510;6.498;2023-04-25T01:25:19;94691.84;;;9.91;62.93
45937;BME280;31649;46.510;6.498;2023-04-25T01:27:45;94691.03;;;9.90;62.95
45937;BME280;31649;46.510;6.498;2023-04-25T01:30:11;94695.41;;;9.90;62.95
45937;BME280;31649;46.510;6.498;2023-04-25T01:32:36;94688.63;;;9.89;62.94
45937;BME280;31649;46.510;6.498;2023-04-25T01:35:07;94680.81;;;9.89;63.08
45937;BME280;31649;46.510;6.498;2023-04-25T01:40:03;94687.34;;;9.84;62.97
45937;BME280;31649;46.510;6.498;2023-04-25T01:42:31;94687.34;;;9.84;62.79
45937;BME280;31649;46.510;6.498;2023-04-25T01:44:56;94689.75;;;9.86;62.99
45937;BME280;31649;46.510;6.498;2023-04-25T01:47:22;94679.56;;;9.84;62.99
45937;BME280;31649;46.510;6.498;2023-04-25T01:49:47;94680.34;;;9.85;62.96
45937;BME280;31649;46.510;6.498;2023-04-25T01:52:13;94684.75;;;9.84;62.87
45937;BME280;31649;46.510;6.498;2023-04-25T01:54:38;94674.50;;;9.83;63.28
45937;BME280;31649;46.510;6.498;2023-04-25T01:57:09;94675.31;;;9.83;63.00
45937;BME280;31649;46.510;6.498;2023-04-25T01:59:35;94673.53;;;9.84;63.01
45937;BME280;31649;46.510;6.498;2023-04-25T02:02:01;94672.09;;;9.81;63.17
45937;BME280;31649;46.510;6.498;2023-04-25T02:04:32;94683.28;;;9.82;62.80
45937;BME280;31649;46.510;6.498;2023-04-25T02:06:58;94684.44;;;9.79;63.27
45937;BME280;31649;46.510;6.498;2023-04-25T02:09:24;94682.84;;;9.78;62.96
45937;BME280;31649;46.510;6.498;2023-04-25T02:11:49;94680.06;;;9.80;63.19
45937;BME280;31649;46.510;6.498;2023-04-25T02:14:15;94677.78;;;9.77;63.34
45937;BME280;31649;46.510;6.498;2023-04-25T02:16:41;94679.59;;;9.76;63.09
45937;BME280;31649;46.510;6.498;2023-04-25T02:19:09;94678.16;;;9.73;63.30
45937;BME280;31649;46.510;6.498;2023-04-25T02:21:35;94677.97;;;9.75;63.19
45937;BME280;31649;46.510;6.498;2023-04-25T02:24:01;94676.19;;;9.75;63.30
45937;BME280;31649;46.510;6.498;2023-04-25T02:26:27;94675.72;;;9.72;63.24
45937;BME280;31649;46.510;6.498;2023-04-25T02:28:52;94676.06;;;9.69;63.40
45937;BME280;31649;46.510;6.498;2023-04-25T02:31:18;94678.47;;;9.70;63.16
45937;BME280;31649;46.510;6.498;2023-04-25T02:33:43;94673.00;;;9.65;63.29
45937;BME280;31649;46.510;6.498;2023-04-25T02:36:09;94670.22;;;9.67;63.54
45937;BME280;31649;46.510;6.498;2023-04-25T02:38:34;94662.81;;;9.63;63.54
45937;BME280;31649;46.510;6.498;2023-04-25T02:41:00;94656.97;;;9.61;63.59
45937;BME280;31649;46.510;6.498;2023-04-25T02:43:26;94661.81;;;9.64;63.33
45937;BME280;31649;46.510;6.498;2023-04-25T02:45:51;94661.81;;;9.64;63.73
45937;BME280;31649;46.510;6.498;2023-04-25T02:48:17;94664.75;;;9.61;63.22
45937;BME280;31649;46.510;6.498;2023-04-25T02:50:43;94662.31;;;9.60;63.36
45937;BME280;31649;46.510;6.498;2023-04-25T02:53:08;94661.16;;;9.62;63.38
45937;BME280;31649;46.510;6.498;2023-04-25T02:55:34;94665.53;;;9.62;63.22
45937;BME280;31649;46.510;6.498;2023-04-25T02:57:59;94657.28;;;9.58;63.12
45937;BME280;31649;46.510;6.498;2023-04-25T03:00:25;94655.06;;;9.55;63.83
45937;BME280;31649;46.510;6.498;2023-04-25T03:02:51;94659.25;;;9.56;63.42
45937;BME280;31649;46.510;6.498;2023-04-25T03:05:17;94657.66;;;9.55;63.22
45937;BME280;31649;46.510;6.498;2023-04-25T03:07:42;94661.66;;;9.58;63.24
45937;BME280;31649;46.510;6.498;2023-04-25T03:10:09;94652.47;;;9.55;63.38
45937;BME280;31649;46.510;6.498;2023-04-25T03:12:35;94656.19;;;9.52;63.34
45937;BME280;31649;46.510;6.498;2023-04-25T03:15:01;94649.38;;;9.51;63.34
45937;BME280;31649;46.510;6.498;2023-04-25T03:17:27;94659.94;;;9.50;63.52
45937;BME280;31649;46.510;6.498;2023-04-25T03:19:52;94648.59;;;9.51;63.38
45937;BME280;31649;46.510;6.498;2023-04-25T03:22:18;94648.59;;;9.51;63.22
45937;BME280;31649;46.510;6.498;2023-04-25T03:24:43;94645.50;;;9.47;63.31
45937;BME280;31649;46.510;6.498;2023-04-25T03:27:09;94643.09;;;9.46;63.63
45937;BME280;31649;46.510;6.498;2023-04-25T03:29:34;94642.13;;;9.47;63.80
45937;BME280;31649;46.510;6.498;2023-04-25T03:32:00;94646.69;;;9.45;63.47
45937;BME280;31649;46.510;6.498;2023-04-25T03:34:26;94644.72;;;9.47;63.42
45937;BME280;31649;46.510;6.498;2023-04-25T03:36:51;94639.03;;;9.43;63.44
45937;BME280;31649;46.510;6.498;2023-04-25T03:39:17;94645.03;;;9.44;63.54
45937;BME280;31649;46.510;6.498;2023-04-25T03:41:43;94636.81;;;9.40;63.58
45937;BME280;31649;46.510;6.498;2023-04-25T03:44:08;94642.63;;;9.42;63.45
45937;BME280;31649;46.510;6.498;2023-04-25T03:46:34;94639.84;;;9.44;63.68
45937;BME280;31649;46.510;6.498;2023-04-25T03:48:59;94632.75;;;9.37;63.73
45937;BME280;31649;46.510;6.498;2023-04-25T03:51:25;94630.78;;;9.39;63.65
45937;BME280;31649;46.510;6.498;2023-04-25T03:53:51;94633.75;;;9.36;63.47
45937;BME280;31649;46.510;6.498;2023-04-25T03:56:17;94636.34;;;9.36;63.51
45937;BME280;31649;46.510;6.498;2023-04-25T03:58:43;94627.56;;;9.37;63.74
45937;BME280;31649;46.510;6.498;2023-04-25T04:01:09;94626.91;;;9.35;63.58
45937;BME280;31649;46.510;6.498;2023-04-25T04:03:35;94640.53;;;9.37;63.74
45937;BME280;31649;46.510;6.498;2023-04-25T04:06:04;94632.94;;;9.36;63.44
45937;BME280;31649;46.510;6.498;2023-04-25T04:08:31;94636.47;;;9.35;63.47
45937;BME280;31649;46.510;6.498;2023-04-25T04:10:58;94627.91;;;9.34;63.44
45937;BME280;31649;46.510;6.498;2023-04-25T04:13:26;94632.47;;;9.32;63.53
45937;BME280;31649;46.510;6.498;2023-04-25T04:15:52;94636.84;;;9.32;63.55
45937;BME280;31649;46.510;6.498;2023-04-25T04:18:19;94641.22;;;9.31;63.48
45937;BME280;31649;46.510;6.498;2023-04-25T04:20:45;94632.78;;;9.29;63.64
45937;BME280;31649;46.510;6.498;2023-04-25T04:23:11;94629.22;;;9.30;63.74
45937;BME280;31649;46.510;6.498;2023-04-25T04:25:37;94633.16;;;9.26;63.84
45937;BME280;31649;46.510;6.498;2023-04-25T04:28:03;94631.19;;;9.28;63.68
45937;BME280;31649;46.510;6.498;2023-04-25T04:30:30;94630.66;;;9.33;63.86
45937;BME280;31649;46.510;6.498;2023-04-25T04:32:56;94638.63;;;9.31;63.26
45937;BME280;31649;46.510;6.498;2023-04-25T04:35:23;94634.56;;;9.28;63.45
45937;BME280;31649;46.510;6.498;2023-04-25T04:37:51;94637.97;;;9.29;63.64
45937;BME280;31649;46.510;6.498;2023-04-25T04:40:17;94640.94;;;9.26;63.58
45937;BME280;31649;46.510;6.498;2023-04-25T04:42:45;94649.34;;;9.28;63.47
45937;BME280;31649;46.510;6.498;2023-04-25T04:45:12;94650.50;;;9.25;63.61
45937;BME280;31649;46.510;6.498;2023-04-25T04:47:39;94647.09;;;9.25;63.56
45937;BME280;31649;46.510;6.498;2023-04-25T04:50:09;94643.66;;;9.24;63.51
45937;BME280;31649;46.510;6.498;2023-04-25T04:52:35;94648.88;;;9.24;63.59
45937;BME280;31649;46.510;6.498;2023-04-25T04:55:03;94652.63;;;9.22;63.62
45937;BME280;31649;46.510;6.498;2023-04-25T04:57:34;94655.84;;;9.24;63.45
45937;BME280;31649;46.510;6.498;2023-04-25T05:00:02;94647.44;;;9.22;63.74
45937;BME280;31649;46.510;6.498;2023-04-25T05:02:31;94654.22;;;9.23;63.69
45937;BME280;31649;46.510;6.498;2023-04-25T05:04:58;94651.47;;;9.24;63.47
45937;BME280;31649;46.510;6.498;2023-04-25T05:07:24;94653.41;;;9.22;63.51
45937;BME280;31649;46.510;6.498;2023-04-25T05:09:57;94649.84;;;9.23;63.62
45937;BME280;31649;46.510;6.498;2023-04-25T05:12:30;94647.91;;;9.25;63.63
45937;BME280;31649;46.510;6.498;2023-04-25T05:15:04;94648.06;;;9.24;63.48
45937;BME280;31649;46.510;6.498;2023-04-25T05:17:34;94650.03;;;9.22;63.71
45937;BME280;31649;46.510;6.498;2023-04-25T05:20:00;94645.13;;;9.27;63.61
45937;BME280;31649;46.510;6.498;2023-04-25T05:22:26;94644.50;;;9.25;63.36
45937;BME280;31649;46.510;6.498;2023-04-25T05:24:52;94640.13;;;9.25;63.58
45937;BME280;31649;46.510;6.498;2023-04-25T05:27:28;94641.91;;;9.25;63.50
45937;BME280;31649;46.510;6.498;2023-04-25T05:29:58;94640.28;;;9.24;63.69
45937;BME280;31649;46.510;6.498;2023-04-25T05:32:24;94631.50;;;9.25;63.56
45937;BME280;31649;46.510;6.498;2023-04-25T05:34:50;94634.75;;;9.27;63.69
45937;BME280;31649;46.510;6.498;2023-04-25T05:37:17;94629.72;;;9.25;63.60
45937;BME280;31649;46.510;6.498;2023-04-25T05:39:49;94629.91;;;9.24;63.51
45937;BME280;31649;46.510;6.498;2023-04-25T05:42:19;94632.97;;;9.27;63.62
45937;BME280;31649;46.510;6.498;2023-04-25T05:44:45;94634.56;;;9.28;63.76
45937;BME280;31649;46.510;6.498;2023-04-25T05:47:12;94631.19;;;9.28;63.70
45937;BME280;31649;46.510;6.498;2023-04-25T05:49:39;94632.97;;;9.27;63.76
45937;BME280;31649;46.510;6.498;2023-04-25T05:52:05;94636.38;;;9.28;63.75
45937;BME280;31649;46.510;6.498;2023-04-25T05:54:30;94637.03;;;9.30;63.74
45937;BME280;31649;46.510;6.498;2023-04-25T05:56:57;94634.28;;;9.23;63.47
45937;BME280;31649;46.510;6.498;2023-04-25T05:59:23;94632.97;;;9.27;64.08
45937;BME280;31649;46.510;6.498;2023-04-25T06:01:48;94633.09;;;9.34;63.65
45937;BME280;31649;46.510;6.498;2023-04-25T06:04:14;94640.88;;;9.34;63.51
45937;BME280;31649;46.510;6.498;2023-04-25T06:06:39;94641.81;;;9.42;63.72
45937;BME280;31649;46.510;6.498;2023-04-25T06:09:05;94636.63;;;9.42;63.69
45937;BME280;31649;46.510;6.498;2023-04-25T06:11:31;94638.25;;;9.43;63.99
45937;BME280;31649;46.510;6.498;2023-04-25T06:13:56;94643.72;;;9.48;63.73
45937;BME280;31649;46.510;6.498;2023-04-25T06:16:22;94645.19;;;9.50;63.71
45937;BME280;31649;46.510;6.498;2023-04-25T06:18:47;94637.22;;;9.52;63.83
45937;BME280;31649;46.510;6.498;2023-04-25T06:21:13;94637.84;;;9.54;64.07
45937;BME280;31649;46.510;6.498;2023-04-25T06:23:39;94634.56;;;9.60;63.66
45937;BME280;31649;46.510;6.498;2023-04-25T06:26:04;94635.19;;;9.62;63.66
45937;BME280;31649;46.510;6.498;2023-04-25T06:28:32;94637.28;;;9.67;63.73
45937;BME280;31649;46.510;6.498;2023-04-25T06:30:59;94633.88;;;9.67;63.79
45937;BME280;31649;46.510;6.498;2023-04-25T06:33:25;94632.56;;;9.71;63.59
45937;BME280;31649;46.510;6.498;2023-04-25T06:35:51;94638.25;;;9.66;63.91
45937;BME280;31649;46.510;6.498;2023-04-25T06:38:17;94642.31;;;9.69;63.89
45937;BME280;31649;46.510;6.498;2023-04-25T06:40:42;94635.16;;;9.71;64.07
45937;BME280;31649;46.510;6.498;2023-04-25T06:43:08;94635.59;;;9.74;63.87
45937;BME280;31649;46.510;6.498;2023-04-25T06:45:34;94632.22;;;9.74;63.94
45937;BME280;31649;46.510;6.498;2023-04-25T06:48:00;94631.03;;;9.77;64.18
45937;BME280;31649;46.510;6.498;2023-04-25T06:50:26;94626.34;;;9.80;64.03
45937;BME280;31649;46.510;6.498;2023-04-25T06:52:52;94626.16;;;9.82;64.00
45937;BME280;31649;46.510;6.498;2023-04-25T06:55:18;94623.38;;;9.83;63.94
45937;BME280;31649;46.510;6.498;2023-04-25T06:57:44;94620.97;;;9.82;64.17
45937;BME280;31649;46.510;6.498;2023-04-25T07:00:10;94613.81;;;9.84;64.02
45937;BME280;31649;46.510;6.498;2023-04-25T07:02:36;94625.16;;;9.83;64.28
45937;BME280;31649;46.510;6.498;2023-04-25T07:05:02;94625.00;;;9.84;64.20
45937;BME280;31649;46.510;6.498;2023-04-25T07:07:29;94620.16;;;9.81;64.11
45937;BME280;31649;46.510;6.498;2023-04-25T07:09:55;94621.28;;;9.79;64.15
45937;BME280;31649;46.510;6.498;2023-04-25T07:12:21;94618.53;;;9.80;64.09
45937;BME280;31649;46.510;6.498;2023-04-25T07:14:47;94613.50;;;9.79;64.09
45937;BME280;31649;46.510;6.498;2023-04-25T07:17:13;94617.53;;;9.81;63.81
45937;BME280;31649;46.510;6.498;2023-04-25T07:19:39;94618.88;;;9.77;63.67
45937;BME280;31649;46.510;6.498;2023-04-25T07:22:05;94630.59;;;9.73;63.80
45937;BME280;31649;46.510;6.498;2023-04-25T07:24:31;94629.91;;;9.79;63.81
45937;BME280;31649;46.510;6.498;2023-04-25T07:26:57;94626.16;;;9.82;63.42
45937;BME280;31649;46.510;6.498;2023-04-25T07:29:23;94626.97;;;9.82;63.79
45937;BME280;31649;46.510;6.498;2023-04-25T07:31:48;94628.13;;;9.80;63.99
45937;BME280;31649;46.510;6.498;2023-04-25T07:34:14;94628.94;;;9.80;64.40
45937;BME280;31649;46.510;6.498;2023-04-25T07:36:41;94623.03;;;9.86;64.16
45937;BME280;31649;46.510;6.498;2023-04-25T07:39:07;94630.03;;;9.86;64.32
45937;BME280;31649;46.510;6.498;2023-04-25T07:41:34;94625.91;;;9.92;64.17
45937;BME280;31649;46.510;6.498;2023-04-25T07:44:00;94626.28;;;9.89;64.71
45937;BME280;31649;46.510;6.498;2023-04-25T07:46:25;94624.38;;;9.82;64.84
45937;BME280;31649;46.510;6.498;2023-04-25T07:48:51;94628.88;;;9.89;64.69
45937;BME280;31649;46.510;6.498;2023-04-25T07:51:17;94627.34;;;9.94;64.51
45937;BME280;31649;46.510;6.498;2023-04-25T07:53:45;94625.84;;;10.00;64.93
45937;BME280;31649;46.510;6.498;2023-04-25T07:56:11;94627.28;;;10.03;64.63
45937;BME280;31649;46.510;6.498;2023-04-25T07:58:37;94625.06;;;10.15;64.38
45937;BME280;31649;46.510;6.498;2023-04-25T08:01:03;94622.41;;;10.23;64.17
45937;BME280;31649;46.510;6.498;2023-04-25T08:03:29;94626.09;;;10.29;64.04
45937;BME280;31649;46.510;6.498;2023-04-25T08:05:55;94622.16;;;10.33;64.03
45937;BME280;31649;46.510;6.498;2023-04-25T08:08:21;94625.22;;;10.37;63.85
45937;BME280;31649;46.510;6.498;2023-04-25T08:10:46;94623.88;;;10.41;63.80
45937;BME280;31649;46.510;6.498;2023-04-25T08:13:13;94623.19;;;10.47;64.07
45937;BME280;31649;46.510;6.498;2023-04-25T08:15:39;94620.88;;;10.52;64.00
45937;BME280;31649;46.510;6.498;2023-04-25T08:18:04;94620.53;;;10.55;64.02
45937;BME280;31649;46.510;6.498;2023-04-25T08:20:30;94619.97;;;10.60;63.78
45937;BME280;31649;46.510;6.498;2023-04-25T08:22:56;94619.00;;;10.61;63.83
45937;BME280;31649;46.510;6.498;2023-04-25T08:25:21;94613.28;;;10.66;63.89
45937;BME280;31649;46.510;6.498;2023-04-25T08:27:47;94622.66;;;10.67;63.85
45937;BME280;31649;46.510;6.498;2023-04-25T08:30:12;94615.16;;;10.72;63.91
45937;BME280;31649;46.510;6.498;2023-04-25T08:32:38;94621.06;;;10.66;64.12
45937;BME280;31649;46.510;6.498;2023-04-25T08:35:04;94627.16;;;10.58;64.18
45937;BME280;31649;46.510;6.498;2023-04-25T08:37:29;94624.09;;;10.54;64.26
45937;BME280;31649;46.510;6.498;2023-04-25T08:39:55;94626.16;;;10.59;64.25
45937;BME280;31649;46.510;6.498;2023-04-25T08:42:21;94630.34;;;10.45;64.05
45937;BME280;31649;46.510;6.498;2023-04-25T08:44:49;94627.69;;;10.53;63.98
45937;BME280;31649;46.510;6.498;2023-04-25T08:47:15;94620.06;;;10.52;63.69
45937;BME280;31649;46.510;6.498;2023-04-25T08:49:45;94634.50;;;10.54;63.91
45937;BME280;31649;46.510;6.498;2023-04-25T08:52:13;94630.56;;;10.20;64.21
45937;BME280;31649;46.510;6.498;2023-04-25T08:54:43;94629.47;;;10.14;64.81
45937;BME280;31649;46.510;6.498;2023-04-25T08:57:14;94624.56;;;10.19;64.16
45937;BME280;31649;46.510;6.498;2023-04-25T08:59:40;94631.53;;;10.19;64.58
45937;BME280;31649;46.510;6.498;2023-04-25T09:02:11;94634.06;;;10.27;64.06
45937;BME280;31649;46.510;6.498;2023-04-25T09:04:40;94627.66;;;10.38;63.93
45937;BME280;31649;46.510;6.498;2023-04-25T09:07:06;94627.69;;;10.53;63.62
45937;BME280;31649;46.510;6.498;2023-04-25T09:09:32;94623.91;;;10.56;63.74
45937;BME280;31649;46.510;6.498;2023-04-25T09:11:57;94630.66;;;10.65;63.74
45937;BME280;31649;46.510;6.498;2023-04-25T09:14:24;94619.34;;;10.58;64.41
45937;BME280;31649;46.510;6.498;2023-04-25T09:19:26;94619.00;;;10.76;63.80
45937;BME280;31649;46.510;6.498;2023-04-25T09:22:00;94615.75;;;10.89;64.25
45937;BME280;31649;46.510;6.498;2023-04-25T09:24:44;94613.88;;;10.98;63.76
45937;BME280;31649;46.510;6.498;2023-04-25T09:27:19;94610.44;;;10.98;63.79
45937;BME280;31649;46.510;6.498;2023-04-25T09:29:45;94614.50;;;11.00;63.20
45937;BME280;31649;46.510;6.498;2023-04-25T09:32:17;94617.72;;;11.02;63.16
45937;BME280;31649;46.510;6.498;2023-04-25T09:34:45;94618.97;;;11.07;63.01
45937;BME280;31649;46.510;6.498;2023-04-25T09:37:20;94618.34;;;11.05;63.07
45937;BME280;31649;46.510;6.498;2023-04-25T09:39:56;94619.16;;;11.05;62.59
45937;BME280;31649;46.510;6.498;2023-04-25T09:42:23;94623.56;;;11.05;62.50
45937;BME280;31649;46.510;6.498;2023-04-25T09:44:51;94617.53;;;11.04;62.26
45937;BME280;31649;46.510;6.498;2023-04-25T09:47:17;94619.78;;;11.07;62.35
45937;BME280;31649;46.510;6.498;2023-04-25T09:49:43;94625.19;;;11.06;62.36
45937;BME280;31649;46.510;6.498;2023-04-25T09:52:18;94610.00;;;11.09;62.64
45937;BME280;31649;46.510;6.498;2023-04-25T09:54:48;94612.16;;;11.06;63.15
45937;BME280;31649;46.510;6.498;2023-04-25T09:57:19;94611.19;;;10.91;63.29
45937;BME280;31649;46.510;6.498;2023-04-25T09:59:53;94619.34;;;10.88;63.23
45937;BME280;31649;46.510;6.498;2023-04-25T10:02:21;94608.13;;;10.88;63.26
45937;BME280;31649;46.510;6.498;2023-04-25T10:04:53;94603.03;;;10.64;63.70
45937;BME280;31649;46.510;6.498;2023-04-25T10:07:25;94609.84;;;10.81;63.74
45937;BME280;31649;46.510;6.498;2023-04-25T10:09:58;94603.84;;;10.95;63.35
45937;BME280;31649;46.510;6.498;2023-04-25T10:12:26;94609.72;;;11.04;63.01
45937;BME280;31649;46.510;6.498;2023-04-25T10:14:52;94624.91;;;11.00;62.10
45937;BME280;31649;46.510;6.498;2023-04-25T10:17:19;94617.00;;;10.94;61.83
45937;BME280;31649;46.510;6.498;2023-04-25T10:19:46;94621.59;;;10.91;61.50
45937;BME280;31649;46.510;6.498;2023-04-25T10:22:29;94616.66;;;10.97;61.96
45937;BME280;31649;46.510;6.498;2023-04-25T10:24:56;94619.50;;;11.02;61.71
45937;BME280;31649;46.510;6.498;2023-04-25T10:27:22;94618.16;;;11.06;61.97
45937;BME280;31649;46.510;6.498;2023-04-25T10:30:23;94611.34;;;11.05;61.95
45937;BME280;31649;46.510;6.498;2023-04-25T10:32:49;94605.97;;;11.07;62.28
45937;BME280;31649;46.510;6.498;2023-04-25T10:35:19;94617.00;;;11.09;62.10
45937;BME280;31649;46.510;6.498;2023-04-25T10:37:59;94605.72;;;11.01;62.48
45937;BME280;31649;46.510;6.498;2023-04-25T10:40:25;94608.94;;;11.03;62.46
45937;BME280;31649;46.510;6.498;2023-04-25T10:42:54;94605.00;;;11.08;62.83
45937;BME280;31649;46.510;6.498;2023-04-25T10:45:21;94594.56;;;11.08;62.83
45937;BME280;31649;46.510;6.498;2023-04-25T10:47:47;94595.75;;;11.05;62.49
45937;BME280;31649;46.510;6.498;2023-04-25T10:50:16;94594.56;;;11.08;62.43
45937;BME280;31649;46.510;6.498;2023-04-25T10:52:42;94595.38;;;11.08;62.36
45937;BME280;31649;46.510;6.498;2023-04-25T10:55:08;94594.50;;;11.01;61.86
45937;BME280;31649;46.510;6.498;2023-04-25T10:57:41;94588.84;;;10.97;61.91
45937;BME280;31649;46.510;6.498;2023-04-25T11:00:08;94591.88;;;11.01;61.94
45937;BME280;31649;46.510;6.498;2023-04-25T11:02:52;94584.34;;;11.06;62.05
45937;BME280;31649;46.510;6.498;2023-04-25T11:05:22;94573.38;;;11.11;61.84
45937;BME280;31649;46.510;6.498;2023-04-25T11:07:53;94582.97;;;11.10;61.60
45937;BME280;31649;46.510;6.498;2023-04-25T11:10:28;94594.13;;;11.04;61.22
45937;BME280;31649;46.510;6.498;2023-04-25T11:12:55;94604.81;;;10.94;60.88
45937;BME280;31649;46.510;6.498;2023-04-25T11:15:20;94634.78;;;10.60;61.08
45937;BME280;31649;46.510;6.498;2023-04-25T11:17:46;94642.09;;;10.41;61.63
45937;BME280;31649;46.510;6.498;2023-04-25T11:20:13;94662.53;;;10.44;61.41
45937;BME280;31649;46.510;6.498;2023-04-25T11:22:40;94671.72;;;10.55;61.27
45937;BME280;31649;46.510;6.498;2023-04-25T11:25:09;94670.81;;;10.63;61.40
45937;BME280;31649;46.510;6.498;2023-04-25T11:28:00;94676.03;;;10.78;61.44
45937;BME280;31649;46.510;6.498;2023-04-25T11:30:26;94684.13;;;10.83;60.79
45937;BME280;31649;46.510;6.498;2023-04-25T11:32:52;94692.19;;;10.88;60.95
45937;BME280;31649;46.510;6.498;2023-04-25T11:35:21;94691.50;;;10.95;61.24
45937;BME280;31649;46.510;6.498;2023-04-25T11:37:48;94690.34;;;10.97;61.51
45937;BME280;31649;46.510;6.498;2023-04-25T11:40:14;94691.03;;;11.06;61.49
45937;BME280;31649;46.510;6.498;2023-04-25T11:42:44;94686.53;;;11.00;61.78
45937;BME280;31649;46.510;6.498;2023-04-25T11:45:10;94688.16;;;10.86;62.43
45937;BME280;31649;46.510;6.498;2023-04-25T11:47:37;94680.25;;;10.79;62.78
45937;BME280;31649;46.510;6.498;2023-04-25T11:50:04;94674.06;;;10.80;62.93
45937;BME280;31649;46.510;6.498;2023-04-25T11:52:43;94671.38;;;10.73;62.88
45937;BME280;31649;46.510;6.498;2023-04-25T11:55:17;94680.00;;;10.74;62.93
45937;BME280;31649;46.510;6.498;2023-04-25T11:57:45;94672.38;;;10.72;62.95
45937;BME280;31649;46.510;6.498;2023-04-25T12:00:16;94672.72;;;10.69;62.87
45937;BME280;31649;46.510;6.498;2023-04-25T12:02:43;94674.75;;;10.59;62.79
45937;BME280;31649;46.510;6.498;2023-04-25T12:05:12;94679.34;;;10.56;63.08
45937;BME280;31649;46.510;6.498;2023-04-25T12:07:38;94681.59;;;10.60;62.95
45937;BME280;31649;46.510;6.498;2023-04-25T12:10:08;94676.78;;;10.48;63.18
45937;BME280;31649;46.510;6.498;2023-04-25T12:12:35;94696.28;;;10.52;63.17
45937;BME280;31649;46.510;6.498;2023-04-25T12:15:15;94691.75;;;10.46;63.21
45937;BME280;31649;46.510;6.498;2023-04-25T12:17:45;94707.41;;;10.38;63.50
45937;BME280;31649;46.510;6.498;2023-04-25T12:20:13;94702.34;;;10.21;62.97
45937;BME280;31649;46.510;6.498;2023-04-25T12:22:44;94714.81;;;10.26;63.05
45937;BME280;31649;46.510;6.498;2023-04-25T12:25:11;94713.75;;;10.20;63.51
45937;BME280;31649;46.510;6.498;2023-04-25T12:27:38;94710.13;;;10.21;63.69
45937;BME280;31649;46.510;6.498;2023-04-25T12:30:07;94716.09;;;10.30;63.69
45937;BME280;31649;46.510;6.498;2023-04-25T12:32:34;94710.91;;;10.30;63.51
45937;BME280;31649;46.510;6.498;2023-04-25T12:35:00;94722.19;;;10.37;63.47
45937;BME280;31649;46.510;6.498;2023-04-25T12:37:26;94713.03;;;10.26;63.56
45937;BME280;31649;46.510;6.498;2023-04-25T12:39:53;94713.69;;;10.28;63.45
45937;BME280;31649;46.510;6.498;2023-04-25T12:42:19;94714.31;;;10.30;63.08
45937;BME280;31649;46.510;6.498;2023-04-25T12:44:44;94716.22;;;10.37;63.25
45937;BME280;31649;46.510;6.498;2023-04-25T12:47:11;94714.13;;;10.32;62.75
45937;BME280;31649;46.510;6.498;2023-04-25T12:49:37;94723.13;;;10.21;62.82
45937;BME280;31649;46.510;6.498;2023-04-25T12:52:02;94728.72;;;10.33;62.99
45937;BME280;31649;46.510;6.498;2023-04-25T12:54:28;94728.84;;;10.40;62.45
45937;BME280;31649;46.510;6.498;2023-04-25T12:56:55;94722.38;;;10.36;62.64
45937;BME280;31649;46.510;6.498;2023-04-25T12:59:20;94721.34;;;10.45;62.71
45937;BME280;31649;46.510;6.498;2023-04-25T13:01:46;94725.69;;;10.53;62.48
45937;BME280;31649;46.510;6.498;2023-04-25T13:04:12;94717.31;;;10.81;61.67
45937;BME280;31649;46.510;6.498;2023-04-25T13:06:37;94717.13;;;10.98;61.47
45937;BME280;31649;46.510;6.498;2023-04-25T13:09:03;94714.63;;;11.05;60.88
45937;BME280;31649;46.510;6.498;2023-04-25T13:11:29;94708.28;;;11.07;61.25
45937;BME280;31649;46.510;6.498;2023-04-25T13:13:55;94704.94;;;10.98;61.34
45937;BME280;31649;46.510;6.498;2023-04-25T13:16:21;94706.81;;;11.05;61.65